Time;durP1;ratioP1;P1;durP2;ratioP2;P2;SDS_P1;SDS_P2;PMS_P1;PMS_P2;Temp;Humidity;BMP_temperature;BMP_pressure;BME280_temperature;BME280_humidity;BME280_pressure;Samples;Min_cycle;Max_cycle;Signal;HPM_P1;HPM_P2
2023/03/24 00:01:48;;;;;;;;;;;;;;;-140.72;100.00;52955.00;5053497;28;19920;-67
2023/03/24 00:04:14;;;;;;;;;;;;;;;-140.72;100.00;52971.22;5051201;28;19966;-67
2023/03/24 00:06:39;;;;;;;;;;;;;;;-140.72;100.00;52950.94;5072872;28;20294;-67
2023/03/24 00:09:05;;;;;;;;;;;;;;;-140.72;100.00;52950.94;5055729;28;19967;-67
2023/03/24 00:11:33;;;;;;;;;;;;;;;-140.72;100.00;52971.22;5071319;28;19927;-67
2023/03/24 00:13:59;;;;;;;;;;;;;;;-140.72;100.00;52985.44;5052002;28;19974;-69
2023/03/24 00:16:25;;;;;;;;;;;;;;;-140.72;100.00;52942.81;5069265;28;19924;-67
2023/03/24 00:18:51;;;;;;;;;;;;;;;-140.72;100.00;52967.16;5059592;28;19924;-68
2023/03/24 00:21:20;;;;;;;;;;;;;;;-140.72;100.00;52959.06;5054965;28;19960;-68
2023/03/24 00:23:46;;;;;;;;;;;;;;;-140.72;100.00;52981.38;5065617;28;19970;-68
2023/03/24 00:26:14;;;;;;;;;;;;;;;-140.72;100.00;52975.28;5054006;28;19982;-67
2023/03/24 00:28:41;;;;;;;;;;;;;;;-140.72;100.00;52940.78;5073589;28;19928;-68
2023/03/24 00:31:07;;;;;;;;;;;;;;;-140.72;100.00;52959.06;5055348;28;19927;-68
2023/03/24 00:33:34;;;;;;;;;;;;;;;-140.72;100.00;52985.44;5053443;28;20041;-67
2023/03/24 00:35:59;;;;;;;;;;;;;;;-140.72;100.00;52950.94;5067759;28;19944;-68
2023/03/24 00:38:25;;;;;;;;;;;;;;;-140.72;100.00;53011.81;5055075;28;19917;-68
2023/03/24 00:40:51;;;;;;;;;;;;;;;-140.72;100.00;52955.00;5052139;28;19928;-68
2023/03/24 00:43:16;;;;;;;;;;;;;;;-140.72;100.00;52963.13;5045132;28;19924;-68
2023/03/24 00:45:45;;;;;;;;;;;;;;;-140.72;100.00;53021.97;5064636;28;19978;-67
2023/03/24 00:48:16;;;;;;;;;;;;;;;-140.72;100.00;52959.06;5065866;28;19920;-67
2023/03/24 00:50:45;;;;;;;;;;;;;;;-140.72;100.00;52944.84;5077095;28;19921;-67
2023/03/24 00:53:11;;;;;;;;;;;;;;;-140.72;100.00;52985.44;5070080;28;19938;-67
2023/03/24 00:55:36;;;;;;;;;;;;;;;-140.72;100.00;52983.41;5076071;28;19920;-67
2023/03/24 00:58:02;;;;;;;;;;;;;;;-140.72;100.00;52955.00;5055015;28;19921;-67
2023/03/24 01:00:27;;;;;;;;;;;;;;;-140.72;100.00;52959.06;5071405;28;19920;-67
2023/03/24 01:02:53;;;;;;;;;;;;;;;-140.72;100.00;52975.28;5071767;28;19952;-68
2023/03/24 01:05:19;;;;;;;;;;;;;;;-140.72;100.00;52965.16;5057379;28;20384;-68
2023/03/24 01:07:45;;;;;;;;;;;;;;;-140.72;100.00;52967.16;5070101;28;19935;-67
2023/03/24 01:10:12;;;;;;;;;;;;;;;-140.72;100.00;52946.88;5052954;28;19921;-67
2023/03/24 01:12:37;;;;;;;;;;;;;;;-140.72;100.00;52973.25;5067193;28;19920;-68
2023/03/24 01:15:04;;;;;;;;;;;;;;;-140.72;100.00;52983.41;5070478;28;19927;-67
2023/03/24 01:17:30;;;;;;;;;;;;;;;-140.72;100.00;53007.75;5068163;28;19921;-67
2023/03/24 01:19:56;;;;;;;;;;;;;;;-140.72;100.00;52979.34;5068970;28;19924;-67
2023/03/24 01:22:21;;;;;;;;;;;;;;;-140.72;100.00;52948.91;5065247;28;20362;-67
2023/03/24 01:24:47;;;;;;;;;;;;;;;-140.72;100.00;52955.00;5053263;28;20014;-67
2023/03/24 01:27:13;;;;;;;;;;;;;;;-140.72;100.00;52946.88;5052804;28;19927;-67
2023/03/24 01:29:38;;;;;;;;;;;;;;;-140.72;100.00;52987.47;5054062;28;19921;-67
2023/03/24 01:32:05;;;;;;;;;;;;;;;-140.72;100.00;53003.69;5053742;28;21641;-68
2023/03/24 01:34:34;;;;;;;;;;;;;;;-140.72;100.00;53017.91;5050231;28;19924;-67
2023/03/24 01:37:00;;;;;;;;;;;;;;;-140.72;100.00;52967.16;5055688;28;20019;-67
2023/03/24 01:39:25;;;;;;;;;;;;;;;-140.72;100.00;52950.94;5070964;28;20462;-67
2023/03/24 01:42:14;;;;;;;;;;;;;;;-140.72;100.00;52942.81;5052079;28;19921;-67
2023/03/24 01:44:40;;;;;;;;;;;;;;;-140.72;100.00;52959.06;5065788;28;19921;-67
2023/03/24 01:47:06;;;;;;;;;;;;;;;-140.72;100.00;52979.34;5054820;28;20357;-67
2023/03/24 01:49:34;;;;;;;;;;;;;;;-140.72;100.00;52981.38;5072395;28;19962;-67
2023/03/24 01:52:01;;;;;;;;;;;;;;;-140.72;100.00;53011.81;5070339;28;19927;-68
2023/03/24 01:54:32;;;;;;;;;;;;;;;-140.72;100.00;52991.53;5071785;28;19926;-68
2023/03/24 01:57:07;;;;;;;;;;;;;;;-140.72;100.00;52961.09;5056542;28;19920;-68
2023/03/24 01:59:34;;;;;;;;;;;;;;;-140.72;100.00;52955.00;5071789;28;19927;-67
2023/03/24 02:02:02;;;;;;;;;;;;;;;-140.72;100.00;52981.38;5069766;28;19920;-68
2023/03/24 02:07:53;;;;;;;;;;;;;;;-140.72;100.00;52957.03;5071329;28;19942;-68
2023/03/24 02:10:19;;;;;;;;;;;;;;;-140.72;100.00;52938.75;5071544;28;19994;-68
2023/03/24 02:12:45;;;;;;;;;;;;;;;-140.72;100.00;53011.81;5051653;28;19921;-67
2023/03/24 02:15:11;;;;;;;;;;;;;;;-140.72;100.00;52952.97;5056729;28;19924;-68
2023/03/24 02:17:36;;;;;;;;;;;;;;;-140.72;100.00;52971.22;5075208;28;19999;-68
2023/03/24 02:20:04;;;;;;;;;;;;;;;-140.72;100.00;52959.06;5070669;28;20014;-68
2023/03/24 02:22:55;;;;;;;;;;;;;;;-140.72;100.00;52991.53;5056796;28;19995;-67
2023/03/24 02:25:21;;;;;;;;;;;;;;;-140.72;100.00;52997.63;5046617;28;20007;-68
2023/03/24 02:27:58;;;;;;;;;;;;;;;-140.72;100.00;52971.22;5074254;28;20015;-68
2023/03/24 02:30:32;;;;;;;;;;;;;;;-140.72;100.00;52991.53;5069972;28;20012;-68
2023/03/24 02:33:12;;;;;;;;;;;;;;;-140.72;100.00;52991.53;5073063;28;19942;-68
2023/03/24 02:36:01;;;;;;;;;;;;;;;-140.72;100.00;52999.66;5074823;28;19928;-68
2023/03/24 02:38:38;;;;;;;;;;;;;;;-140.72;100.00;53007.75;5028089;28;19928;-68
2023/03/24 02:41:25;;;;;;;;;;;;;;;-140.72;100.00;52991.53;5070301;28;20386;-68
2023/03/24 02:44:10;;;;;;;;;;;;;;;-140.72;100.00;53015.88;5073343;28;19928;-68
2023/03/24 02:46:42;;;;;;;;;;;;;;;-140.72;100.00;53050.38;5053865;28;19924;-67
2023/03/24 02:49:13;;;;;;;;;;;;;;;-140.72;100.00;52975.28;5069983;28;19927;-67
2023/03/24 02:51:45;;;;;;;;;;;;;;;-140.72;100.00;52979.34;5052277;28;21486;-68
2023/03/24 02:54:14;;;;;;;;;;;;;;;-140.72;100.00;53003.69;5071949;28;19916;-68
2023/03/24 02:56:39;;;;;;;;;;;;;;;-140.72;100.00;53032.13;5072267;28;19942;-68
2023/03/24 02:59:06;;;;;;;;;;;;;;;-140.72;100.00;53036.16;5071661;28;19924;-68
2023/03/24 03:01:36;;;;;;;;;;;;;;;-140.72;100.00;53013.84;5071311;28;19983;-68
2023/03/24 03:04:07;;;;;;;;;;;;;;;-140.72;100.00;53028.06;5069868;28;19920;-68
2023/03/24 03:06:35;;;;;;;;;;;;;;;-140.72;100.00;53011.81;5070856;28;20434;-68
2023/03/24 03:09:03;;;;;;;;;;;;;;;-140.72;100.00;53005.72;5074532;28;20427;-68
2023/03/24 03:11:29;;;;;;;;;;;;;;;-140.72;100.00;53007.75;5051768;28;19921;-68
2023/03/24 03:13:58;;;;;;;;;;;;;;;-140.72;100.00;53013.84;5069356;28;19980;-68
2023/03/24 03:16:37;;;;;;;;;;;;;;;-140.72;100.00;53036.16;5076706;28;20333;-68
2023/03/24 03:19:08;;;;;;;;;;;;;;;-140.72;100.00;53054.44;5075914;28;19927;-68
2023/03/24 03:21:35;;;;;;;;;;;;;;;-140.72;100.00;52991.53;5063975;28;19927;-68
2023/03/24 03:24:08;;;;;;;;;;;;;;;-140.72;100.00;53013.84;5073321;28;19939;-67
2023/03/24 03:26:33;;;;;;;;;;;;;;;-140.72;100.00;53026.03;5051676;28;19925;-67
2023/03/24 03:29:10;;;;;;;;;;;;;;;-140.72;100.00;53005.72;5051323;28;21283;-68
2023/03/24 03:31:44;;;;;;;;;;;;;;;-140.72;100.00;53003.69;5066586;28;19952;-68
2023/03/24 03:34:33;;;;;;;;;;;;;;;-140.72;100.00;53021.97;5046888;28;20309;-68
2023/03/24 03:37:12;;;;;;;;;;;;;;;-140.72;100.00;53036.16;5073429;28;19967;-68
2023/03/24 03:40:01;;;;;;;;;;;;;;;-140.72;100.00;53042.25;5075983;28;20286;-68
2023/03/24 03:42:27;;;;;;;;;;;;;;;-140.72;100.00;52975.28;5074080;28;20011;-68
2023/03/24 03:44:52;;;;;;;;;;;;;;;-140.72;100.00;53028.06;5059017;28;22177;-68
2023/03/24 03:47:20;;;;;;;;;;;;;;;-140.72;100.00;52999.66;5056177;28;19921;-67
2023/03/24 03:50:22;;;;;;;;;;;;;;;-140.72;100.00;52995.59;5071010;28;19924;-68
2023/03/24 03:52:47;;;;;;;;;;;;;;;-140.72;100.00;52995.59;5073087;28;19971;-68
2023/03/24 03:55:12;;;;;;;;;;;;;;;-140.72;100.00;53011.81;5054535;28;19924;-68
2023/03/24 03:57:38;;;;;;;;;;;;;;;-140.72;100.00;53036.16;5067879;28;19924;-67
2023/03/24 04:00:07;;;;;;;;;;;;;;;-140.72;100.00;53013.84;5055056;28;20265;-68
2023/03/24 04:02:38;;;;;;;;;;;;;;;-140.72;100.00;53056.47;5056099;28;20448;-68
2023/03/24 04:05:12;;;;;;;;;;;;;;;-140.72;100.00;53021.97;5065732;28;19916;-68
2023/03/24 04:07:56;;;;;;;;;;;;;;;-140.72;100.00;53003.69;5072602;28;19928;-68
2023/03/24 04:10:50;;;;;;;;;;;;;;;-140.72;100.00;53044.28;5050082;28;20003;-67
2023/03/24 04:13:18;;;;;;;;;;;;;;;-140.72;100.00;53003.69;5072969;28;19925;-68
2023/03/24 04:15:52;;;;;;;;;;;;;;;-140.72;100.00;53013.84;5068106;28;19920;-67
2023/03/24 04:18:33;;;;;;;;;;;;;;;-140.72;100.00;53046.31;5069035;28;19927;-67
2023/03/24 04:21:07;;;;;;;;;;;;;;;-140.72;100.00;53030.09;5069279;28;19920;-67
2023/03/24 04:23:43;;;;;;;;;;;;;;;-140.72;100.00;53024.00;5048385;28;20371;-67
2023/03/24 04:26:17;;;;;;;;;;;;;;;-140.72;100.00;53040.22;5053089;28;19995;-68
2023/03/24 04:28:51;;;;;;;;;;;;;;;-140.72;100.00;53032.13;5049914;28;20398;-68
2023/03/24 04:31:36;;;;;;;;;;;;;;;-140.72;100.00;53042.25;5048938;28;21387;-68
2023/03/24 04:34:14;;;;;;;;;;;;;;;-140.72;100.00;53011.81;5047131;28;19917;-68
2023/03/24 04:36:42;;;;;;;;;;;;;;;-140.72;100.00;53026.03;5065715;28;20023;-68
2023/03/24 04:39:11;;;;;;;;;;;;;;;-140.72;100.00;53028.06;5047196;28;19970;-68
2023/03/24 04:41:37;;;;;;;;;;;;;;;-140.72;100.00;53013.84;5065026;28;20046;-68
2023/03/24 04:44:03;;;;;;;;;;;;;;;-140.72;100.00;53009.78;5048221;28;20347;-68
2023/03/24 04:46:29;;;;;;;;;;;;;;;-140.72;100.00;53048.34;5069723;28;20011;-67
2023/03/24 04:49:05;;;;;;;;;;;;;;;-140.72;100.00;53003.69;5071138;28;19920;-68
2023/03/24 04:51:30;;;;;;;;;;;;;;;-140.72;100.00;52999.66;5065841;28;20043;-68
2023/03/24 04:53:56;;;;;;;;;;;;;;;-140.72;100.00;53021.97;5063931;28;20386;-67
2023/03/24 04:56:33;;;;;;;;;;;;;;;-140.72;100.00;53003.69;5048166;28;19959;-68
2023/03/24 04:58:59;;;;;;;;;;;;;;;-140.72;100.00;53048.34;5071738;28;19921;-67
2023/03/24 05:01:28;;;;;;;;;;;;;;;-140.72;100.00;53032.13;5052080;28;20298;-70
2023/03/24 05:03:53;;;;;;;;;;;;;;;-140.72;100.00;52995.59;5070415;28;20007;-68
2023/03/24 05:06:19;;;;;;;;;;;;;;;-140.72;100.00;53011.81;5070140;28;19952;-70
2023/03/24 05:08:44;;;;;;;;;;;;;;;-140.72;100.00;52952.97;5050065;28;20376;-68
2023/03/24 05:11:09;;;;;;;;;;;;;;;-140.72;100.00;53026.03;5073176;28;20426;-72
2023/03/24 05:13:38;;;;;;;;;;;;;;;-140.72;100.00;52987.47;4986101;28;2098973;-75
2023/03/24 05:16:09;;;;;;;;;;;;;;;-140.72;100.00;52991.53;5055142;28;20005;-69
2023/03/24 05:18:34;;;;;;;;;;;;;;;-140.72;100.00;52989.50;5075115;28;19940;-69
2023/03/24 05:21:00;;;;;;;;;;;;;;;-140.72;100.00;53011.81;5053863;28;20118;-70
2023/03/24 05:23:25;;;;;;;;;;;;;;;-140.72;100.00;53017.91;5076505;28;20382;-69
2023/03/24 05:25:50;;;;;;;;;;;;;;;-140.72;100.00;53011.81;5050950;28;19971;-69
2023/03/24 05:28:16;;;;;;;;;;;;;;;-140.72;100.00;53005.72;5067418;28;19935;-71
2023/03/24 05:30:41;;;;;;;;;;;;;;;-140.72;100.00;53048.34;5060866;28;19921;-69
2023/03/24 05:33:06;;;;;;;;;;;;;;;-140.72;100.00;52987.47;5075875;28;20297;-67
2023/03/24 05:35:31;;;;;;;;;;;;;;;-140.72;100.00;53028.06;5074825;28;19927;-67
2023/03/24 05:37:57;;;;;;;;;;;;;;;-140.72;100.00;53003.69;5073613;28;19960;-67
2023/03/24 05:40:22;;;;;;;;;;;;;;;-140.72;100.00;53015.88;5071194;28;19928;-68
2023/03/24 05:42:50;;;;;;;;;;;;;;;-140.72;100.00;52991.53;5058148;28;19935;-67
2023/03/24 05:45:16;;;;;;;;;;;;;;;-140.72;100.00;52999.66;5074247;28;19924;-67
2023/03/24 05:47:41;;;;;;;;;;;;;;;-140.72;100.00;53003.69;5076276;28;20289;-70
2023/03/24 05:50:06;;;;;;;;;;;;;;;-140.72;100.00;52973.25;5070367;28;19920;-69
2023/03/24 05:52:32;;;;;;;;;;;;;;;-140.72;100.00;52979.34;5074503;28;20375;-69
2023/03/24 05:54:57;;;;;;;;;;;;;;;-140.72;100.00;53015.88;5074351;28;19924;-69
2023/03/24 05:57:22;;;;;;;;;;;;;;;-140.72;100.00;53003.69;5075557;28;20017;-69
2023/03/24 05:59:48;;;;;;;;;;;;;;;-140.72;100.00;53028.06;5072938;28;19920;-72
2023/03/24 06:02:18;;;;;;;;;;;;;;;-140.72;100.00;53036.16;5058121;28;19927;-70
2023/03/24 06:04:47;;;;;;;;;;;;;;;-140.72;100.00;52995.59;5073839;28;19921;-71
2023/03/24 06:07:13;;;;;;;;;;;;;;;-140.72;100.00;52965.16;5050574;28;19927;-69
2023/03/24 06:09:41;;;;;;;;;;;;;;;-140.72;100.00;52995.59;5066839;28;20006;-69
2023/03/24 06:12:07;;;;;;;;;;;;;;;-140.72;100.00;52987.47;5072588;28;19924;-69
2023/03/24 06:14:32;;;;;;;;;;;;;;;-140.72;100.00;53017.91;5068663;28;19924;-69
2023/03/24 06:16:58;;;;;;;;;;;;;;;-140.72;100.00;52975.28;5070073;28;19931;-69
2023/03/24 06:19:24;;;;;;;;;;;;;;;-140.72;100.00;52985.44;5050038;28;19921;-69
2023/03/24 06:21:49;;;;;;;;;;;;;;;-140.72;100.00;53007.75;5052231;28;19920;-69
2023/03/24 06:24:15;;;;;;;;;;;;;;;-140.72;100.00;53005.72;5068457;28;19920;-69
2023/03/24 06:26:43;;;;;;;;;;;;;;;-140.72;100.00;52973.25;5075267;28;19920;-69
2023/03/24 06:29:08;;;;;;;;;;;;;;;-140.72;100.00;52999.66;5071120;28;20383;-70
2023/03/24 06:31:36;;;;;;;;;;;;;;;-140.72;100.00;52981.38;5073238;28;19924;-69
2023/03/24 06:34:01;;;;;;;;;;;;;;;-140.72;100.00;52991.53;5075342;28;19943;-69
2023/03/24 06:36:27;;;;;;;;;;;;;;;-140.72;100.00;52959.06;5053683;28;20355;-70
2023/03/24 06:38:52;;;;;;;;;;;;;;;-140.72;100.00;53015.88;5074434;28;20418;-70
2023/03/24 06:41:18;;;;;;;;;;;;;;;-140.72;100.00;52987.47;5048337;28;20379;-69
2023/03/24 06:43:43;;;;;;;;;;;;;;;-140.72;100.00;52997.63;5068628;28;19955;-69
2023/03/24 06:46:08;;;;;;;;;;;;;;;-140.72;100.00;52999.66;5055635;28;19921;-70
2023/03/24 06:48:34;;;;;;;;;;;;;;;-140.72;100.00;52987.47;5069745;28;19956;-72
2023/03/24 06:51:00;;;;;;;;;;;;;;;-140.72;100.00;53013.84;5056675;28;19920;-70
2023/03/24 06:53:25;;;;;;;;;;;;;;;-140.72;100.00;52969.19;5052802;28;20276;-70
2023/03/24 06:55:51;;;;;;;;;;;;;;;-140.72;100.00;53015.88;5054558;28;19920;-70
2023/03/24 06:58:16;;;;;;;;;;;;;;;-140.72;100.00;52975.28;5054427;28;19970;-70
2023/03/24 07:00:42;;;;;;;;;;;;;;;-140.72;100.00;53017.91;5072106;28;19974;-70
2023/03/24 07:03:07;;;;;;;;;;;;;;;-140.72;100.00;52979.34;5058082;28;19973;-72
2023/03/24 07:05:39;;;;;;;;;;;;;;;-140.72;100.00;52975.28;5073424;28;19929;-70
2023/03/24 07:08:04;;;;;;;;;;;;;;;-140.72;100.00;52957.03;5075632;28;19999;-71
2023/03/24 07:10:29;;;;;;;;;;;;;;;-140.72;100.00;52957.03;5069710;28;19963;-72
2023/03/24 07:12:55;;;;;;;;;;;;;;;-140.72;100.00;52963.13;5055378;28;19920;-72
2023/03/24 07:15:20;;;;;;;;;;;;;;;-140.72;100.00;52983.41;5058936;28;19924;-70
2023/03/24 07:17:45;;;;;;;;;;;;;;;-140.72;100.00;53005.72;5050148;28;19924;-73
2023/03/24 07:20:10;;;;;;;;;;;;;;;-140.72;100.00;52985.44;5057726;28;19917;-70
2023/03/24 07:22:36;;;;;;;;;;;;;;;-140.72;100.00;52977.31;5055266;28;19916;-68
2023/03/24 07:25:03;;;;;;;;;;;;;;;-140.72;100.00;52965.16;5072963;28;19920;-68
2023/03/24 07:27:29;;;;;;;;;;;;;;;-140.72;100.00;52981.38;5055680;28;19916;-68
2023/03/24 07:29:54;;;;;;;;;;;;;;;-140.72;100.00;53028.06;5073895;28;20007;-68
2023/03/24 07:32:19;;;;;;;;;;;;;;;-140.72;100.00;53001.66;5053933;28;19969;-68
2023/03/24 07:34:45;;;;;;;;;;;;;;;-140.72;100.00;53003.69;5065745;28;19989;-68
2023/03/24 07:37:10;;;;;;;;;;;;;;;-140.72;100.00;52955.00;5056341;28;19951;-68
2023/03/24 07:39:36;;;;;;;;;;;;;;;-140.72;100.00;52967.16;5074378;28;19928;-68
2023/03/24 07:42:01;;;;;;;;;;;;;;;-140.72;100.00;52979.34;5052412;28;19927;-68
2023/03/24 07:44:26;;;;;;;;;;;;;;;-140.72;100.00;52938.75;5055797;28;19935;-68
2023/03/24 07:46:52;;;;;;;;;;;;;;;-140.72;100.00;52926.59;5073617;28;20015;-67
2023/03/24 07:49:17;;;;;;;;;;;;;;;-140.72;100.00;52957.03;5053189;28;20371;-68
2023/03/24 07:51:42;;;;;;;;;;;;;;;-140.72;100.00;52934.69;5072115;28;19921;-68
2023/03/24 07:54:07;;;;;;;;;;;;;;;-140.72;100.00;52946.88;5052722;28;19920;-70
2023/03/24 07:56:32;;;;;;;;;;;;;;;-140.72;100.00;52918.47;5054749;28;19986;-70
2023/03/24 07:58:58;;;;;;;;;;;;;;;-140.72;100.00;52979.34;5073480;28;19989;-70
2023/03/24 08:01:23;;;;;;;;;;;;;;;-140.72;100.00;52922.53;5068346;28;20341;-70
2023/03/24 08:03:53;;;;;;;;;;;;;;;-140.72;100.00;52991.53;5064762;28;20362;-70
2023/03/24 08:06:18;;;;;;;;;;;;;;;-140.72;100.00;52948.91;5068094;28;19931;-71
2023/03/24 08:08:43;;;;;;;;;;;;;;;-140.72;100.00;52932.66;5065686;28;20302;-72
2023/03/24 08:11:08;;;;;;;;;;;;;;;-140.72;100.00;52940.78;5053959;28;19921;-70
2023/03/24 08:13:33;;;;;;;;;;;;;;;-140.72;100.00;52890.06;5053915;28;19933;-72
2023/03/24 08:15:59;;;;;;;;;;;;;;;-140.72;100.00;52934.69;5054369;28;19924;-71
2023/03/24 08:18:24;;;;;;;;;;;;;;;-140.72;100.00;52928.63;5050099;28;19960;-72
2023/03/24 08:20:53;;;;;;;;;;;;;;;-140.72;100.00;52952.97;5074006;28;20004;-71
2023/03/24 08:23:18;;;;;;;;;;;;;;;-140.72;100.00;52928.63;5071157;28;20298;-71
2023/03/24 08:25:43;;;;;;;;;;;;;;;-140.72;100.00;52936.72;5048075;28;19920;-71
2023/03/24 08:28:08;;;;;;;;;;;;;;;-140.72;100.00;52920.50;5049252;28;19921;-71
2023/03/24 08:30:34;;;;;;;;;;;;;;;-140.72;100.00;52894.13;5049697;28;19924;-69
2023/03/24 08:33:00;;;;;;;;;;;;;;;-140.72;100.00;52920.50;5058620;28;20348;-71
2023/03/24 08:35:30;;;;;;;;;;;;;;;-140.72;100.00;52967.16;5057675;28;19936;-71
2023/03/24 08:37:58;;;;;;;;;;;;;;;-140.72;100.00;52924.56;5067802;28;19986;-70
2023/03/24 08:40:23;;;;;;;;;;;;;;;-140.72;100.00;52908.31;5051684;28;20007;-70
2023/03/24 08:42:50;;;;;;;;;;;;;;;-140.72;100.00;52896.16;5046319;28;20000;-68
2023/03/24 08:45:15;;;;;;;;;;;;;;;-140.72;100.00;52924.56;5045534;28;19928;-68
2023/03/24 08:47:40;;;;;;;;;;;;;;;-140.72;100.00;52928.63;5069890;28;19917;-68
2023/03/24 08:50:07;;;;;;;;;;;;;;;-140.72;100.00;52918.47;5068710;28;19950;-68
2023/03/24 08:52:33;;;;;;;;;;;;;;;-140.72;100.00;52938.75;5070824;28;19917;-68
2023/03/24 08:54:58;;;;;;;;;;;;;;;-140.72;100.00;52926.59;5041680;28;19920;-69
2023/03/24 08:57:23;;;;;;;;;;;;;;;-140.72;100.00;52873.81;5062075;28;19971;-70
2023/03/24 08:59:48;;;;;;;;;;;;;;;-140.72;100.00;52898.16;5048625;28;19982;-70
2023/03/24 09:02:14;;;;;;;;;;;;;;;-140.72;100.00;52900.19;5067037;28;19963;-70
2023/03/24 09:04:41;;;;;;;;;;;;;;;-140.72;100.00;52877.88;5054406;28;19952;-70
2023/03/24 09:07:08;;;;;;;;;;;;;;;-140.72;100.00;52867.72;5054526;28;20413;-70
2023/03/24 09:09:33;;;;;;;;;;;;;;;-140.72;100.00;52853.53;5054132;28;19928;-70
2023/03/24 09:11:58;;;;;;;;;;;;;;;-140.72;100.00;52881.94;5054814;28;19916;-70
2023/03/24 09:14:24;;;;;;;;;;;;;;;-140.72;100.00;52875.84;5038368;28;19932;-70
2023/03/24 09:16:52;;;;;;;;;;;;;;;-140.72;100.00;52881.94;5056102;28;19921;-74
2023/03/24 09:19:17;;;;;;;;;;;;;;;-140.72;100.00;52898.16;5042293;28;20333;-68
2023/03/24 09:21:44;;;;;;;;;;;;;;;-140.72;100.00;52861.66;5054416;28;19999;-68
2023/03/24 09:24:10;;;;;;;;;;;;;;;-140.72;100.00;52881.94;5049613;28;20007;-68
2023/03/24 09:26:35;;;;;;;;;;;;;;;-140.72;100.00;52853.53;5054625;28;20079;-68
2023/03/24 09:29:00;;;;;;;;;;;;;;;-140.72;100.00;52847.44;5051719;28;19921;-68
2023/03/24 09:31:26;;;;;;;;;;;;;;;-140.72;100.00;52886.00;5030254;28;19955;-68
2023/03/24 09:33:51;;;;;;;;;;;;;;;-140.72;100.00;52881.94;5032579;28;20302;-68
2023/03/24 09:36:16;;;;;;;;;;;;;;;-140.72;100.00;52829.19;5045893;28;19943;-68
2023/03/24 09:38:41;;;;;;;;;;;;;;;-140.72;100.00;52881.94;5043118;28;19924;-68
2023/03/24 09:41:15;;;;;;;;;;;;;;;-140.72;100.00;52886.00;5049109;28;20334;-69
2023/03/24 09:43:47;;;;;;;;;;;;;;;-140.72;100.00;52853.53;5057372;28;19920;-69
2023/03/24 09:46:15;;;;;;;;;;;;;;;-140.72;100.00;52877.88;5045771;28;19923;-68
2023/03/24 09:48:49;;;;;;;;;;;;;;;-140.72;100.00;52845.41;5045587;28;19925;-68
2023/03/24 09:51:21;;;;;;;;;;;;;;;-140.72;87.48;52841.34;5044906;28;20272;-68
2023/03/24 09:54:05;;;;;;;;;;;;;;;-140.72;100.00;52804.81;5036840;28;19921;-68
2023/03/24 09:56:32;;;;;;;;;;;;;;;-140.72;49.94;52760.19;5048045;28;19927;-69
2023/03/24 09:59:05;;;;;;;;;;;;;;;-140.72;50.58;52780.47;5053761;28;19972;-68
2023/03/24 10:01:32;;;;;;;;;;;;;;;-140.72;40.13;52806.84;5039128;28;19943;-68
2023/03/24 10:03:58;;;;;;;;;;;;;;;-140.72;45.83;52788.59;5058703;28;19921;-68
2023/03/24 10:06:38;;;;;;;;;;;;;;;-140.72;28.35;52819.03;5059671;28;19920;-68
2023/03/24 10:09:04;;;;;;;;;;;;;;;-140.72;34.79;52855.56;5056859;28;20432;-68
2023/03/24 10:11:32;;;;;;;;;;;;;;;-140.72;35.09;52776.41;5048734;28;20012;-68
2023/03/24 10:14:18;;;;;;;;;;;;;;;-140.72;10.30;52756.13;5036724;28;19924;-69
2023/03/24 10:17:10;;;;;;;;;;;;;;;-140.72;0.00;52780.47;5078925;28;19924;-72
2023/03/24 10:19:47;;;;;;;;;;;;;;;-140.72;0.00;52760.19;5036839;28;20391;-73
2023/03/24 10:22:21;;;;;;;;;;;;;;;-140.72;0.00;52739.88;5074423;28;19921;-72
2023/03/24 10:24:52;;;;;;;;;;;;;;;-140.72;0.00;52758.16;5054391;28;19920;-69
2023/03/24 10:27:22;;;;;;;;;;;;;;;-140.72;0.00;52827.16;5066501;28;19935;-72
2023/03/24 10:29:49;;;;;;;;;;;;;;;-140.72;4.65;52831.19;5069519;28;19924;-70
2023/03/24 10:32:20;;;;;;;;;;;;;;;-140.72;0.82;52768.28;5073240;28;19928;-70
2023/03/24 10:34:47;;;;;;;;;;;;;;;-140.72;0.00;52743.94;5073729;28;19925;-73
2023/03/24 10:37:13;;;;;;;;;;;;;;;-140.72;0.00;52658.72;5059114;28;19920;-72
2023/03/24 10:39:39;;;;;;;;;;;;;;;-140.72;0.00;52670.88;5074838;28;20345;-70
2023/03/24 10:42:04;;;;;;;;;;;;;;;-140.72;0.00;52693.22;5052947;28;20406;-70
2023/03/24 10:44:29;;;;;;;;;;;;;;;-140.72;0.00;52713.50;5054991;28;19989;-71
2023/03/24 10:46:56;;;;;;;;;;;;;;;-140.72;0.00;52719.59;5072370;28;20386;-71
2023/03/24 10:49:22;;;;;;;;;;;;;;;-140.72;0.00;52654.66;5074776;28;19920;-69
2023/03/24 10:51:49;;;;;;;;;;;;;;;-140.72;0.00;52741.91;5075304;28;19947;-71
2023/03/24 10:54:21;;;;;;;;;;;;;;;-140.72;0.00;52670.88;5072156;28;19928;-71
2023/03/24 10:56:51;;;;;;;;;;;;;;;-140.72;0.00;52776.41;5053260;28;20015;-71
2023/03/24 10:59:26;;;;;;;;;;;;;;;-140.72;0.00;52798.72;5070084;28;19921;-71
2023/03/24 11:01:59;;;;;;;;;;;;;;;-140.72;0.00;52776.41;5053736;28;20353;-70
2023/03/24 11:04:25;;;;;;;;;;;;;;;-140.72;0.00;52835.25;5047427;28;20271;-73
2023/03/24 11:07:00;;;;;;;;;;;;;;;-140.72;0.00;52721.63;5068691;28;20324;-71
2023/03/24 11:09:25;;;;;;;;;;;;;;;-140.72;0.00;52766.25;5045418;28;19931;-74
2023/03/24 11:11:52;;;;;;;;;;;;;;;-140.72;0.00;52670.88;5052414;28;19924;-71
2023/03/24 11:14:25;;;;;;;;;;;;;;;-140.72;0.00;52622.19;5068476;28;20053;-71
2023/03/24 11:16:50;;;;;;;;;;;;;;;-140.72;0.00;52743.94;5049340;28;19920;-71
2023/03/24 11:19:17;;;;;;;;;;;;;;;-140.72;0.00;52691.19;5067801;28;19977;-70
2023/03/24 11:21:42;;;;;;;;;;;;;;;-140.72;0.00;52731.75;5050365;28;19920;-71
2023/03/24 11:24:30;;;;;;;;;;;;;;;-140.72;0.00;52727.72;5054060;28;19928;-71
2023/03/24 11:26:59;;;;;;;;;;;;;;;-140.72;0.00;52756.13;5073196;28;19936;-70
2023/03/24 11:38:57;;;;;;;;;;;;;;;-140.72;0.00;52821.06;5070437;28;19923;-70
2023/03/24 11:41:23;;;;;;;;;;;;;;;-140.72;0.00;52837.28;5056935;28;20329;-70
2023/03/24 11:43:48;;;;;;;;;;;;;;;-140.72;0.00;52847.44;5052035;28;19921;-70
2023/03/24 11:46:19;;;;;;;;;;;;;;;-140.72;0.00;52817.00;5069772;28;19973;-71
2023/03/24 11:48:51;;;;;;;;;;;;;;;-140.72;0.00;52808.88;5069596;28;19921;-70
2023/03/24 11:51:22;;;;;;;;;;;;;;;-140.72;0.00;52853.53;5053859;28;19920;-70
2023/03/24 11:53:49;;;;;;;;;;;;;;;-140.72;0.00;52829.19;5055938;28;19974;-72
2023/03/24 11:56:14;;;;;;;;;;;;;;;-140.72;0.00;52810.91;5051413;28;20386;-70
2023/03/24 11:58:46;;;;;;;;;;;;;;;-140.72;0.00;52654.66;5051736;28;19927;-70
2023/03/24 12:01:17;;;;;;;;;;;;;;;-140.72;0.00;52729.75;5048031;28;19927;-70
2023/03/24 12:04:03;;;;;;;;;;;;;;;-140.72;0.00;52622.19;5072378;28;20378;-70
2023/03/24 12:06:34;;;;;;;;;;;;;;;-140.72;0.00;52737.84;5021008;28;19928;-70
2023/03/24 12:08:59;;;;;;;;;;;;;;;-140.72;0.00;52792.66;5050666;28;19932;-73
2023/03/24 12:11:27;;;;;;;;;;;;;;;-140.72;0.00;52865.69;5054556;28;19925;-70
2023/03/24 12:13:54;;;;;;;;;;;;;;;-140.72;0.00;52711.47;5052111;28;19921;-70
2023/03/24 12:16:20;;;;;;;;;;;;;;;-140.72;0.00;52622.19;5057522;28;19960;-70
2023/03/24 12:18:49;;;;;;;;;;;;;;;-140.72;0.00;52567.41;5051998;28;20002;-71
2023/03/24 12:21:23;;;;;;;;;;;;;;;-140.72;0.00;52528.84;5048667;28;19974;-71
2023/03/24 12:23:56;;;;;;;;;;;;;;;-140.72;0.00;52536.97;5031859;28;19936;-71
2023/03/24 12:26:25;;;;;;;;;;;;;;;-140.72;0.00;52571.47;5042251;28;19974;-70
2023/03/24 12:28:57;;;;;;;;;;;;;;;-140.72;0.00;52585.66;5056052;28;19928;-72
2023/03/24 12:31:38;;;;;;;;;;;;;;;-140.72;0.00;52687.13;5034205;28;19924;-69
2023/03/24 12:34:12;;;;;;;;;;;;;;;-140.72;0.00;52772.34;5039782;28;19964;-70
2023/03/24 12:36:43;;;;;;;;;;;;;;;-140.72;0.00;52741.91;5037754;28;20012;-69
2023/03/24 12:39:14;;;;;;;;;;;;;;;-140.72;0.00;52541.03;5055434;28;19921;-70
2023/03/24 12:41:39;;;;;;;;;;;;;;;-140.72;0.00;52512.59;5032034;28;19970;-68